createdAt,value
2022-10-06T00:02:18.306Z,0.30
2022-10-06T00:05:19.979Z,0.40
2022-10-06T00:11:23.749Z,0.20
2022-10-06T00:14:25.395Z,0.20
2022-10-06T00:17:26.784Z,0.40
2022-10-06T00:23:33.228Z,0.20
2022-10-06T00:26:35.298Z,0.30
2022-10-06T00:29:36.778Z,0.20
2022-10-06T00:35:44.231Z,0.32
2022-10-06T00:38:45.652Z,0.30
2022-10-06T00:41:51.133Z,0.30
2022-10-06T00:44:53.106Z,0.30
2022-10-06T00:47:58.027Z,0.28
2022-10-06T00:50:59.757Z,0.20
2022-10-06T00:54:02.459Z,0.20
2022-10-06T00:57:05.553Z,0.20
2022-10-06T01:00:09.030Z,0.30
2022-10-06T01:03:14.953Z,0.20
2022-10-06T01:06:16.406Z,0.30
2022-10-06T01:12:20.646Z,0.38
2022-10-06T01:15:22.678Z,0.30
2022-10-06T01:18:27.447Z,0.28
2022-10-06T01:21:40.949Z,0.40
2022-10-06T01:24:46.715Z,0.20
2022-10-06T01:27:52.972Z,0.30
2022-10-06T01:30:59.983Z,0.20
2022-10-06T01:34:01.594Z,0.38
2022-10-06T01:37:03.355Z,0.30
2022-10-06T01:40:06.256Z,0.20
2022-10-06T01:43:10.222Z,0.20
2022-10-06T01:46:12.152Z,0.30
2022-10-06T01:49:15.341Z,0.20
2022-10-06T01:55:19.093Z,0.20
2022-10-06T01:58:20.544Z,0.30
2022-10-06T02:01:22.175Z,0.20
2022-10-06T02:04:23.822Z,0.20
2022-10-06T02:07:25.338Z,0.20
2022-10-06T02:13:32.692Z,0.20
2022-10-06T02:16:35.242Z,0.30
2022-10-06T02:19:36.795Z,0.20
2022-10-06T02:25:43.535Z,0.30
2022-10-06T02:28:45.889Z,0.20
2022-10-06T02:31:49.539Z,0.20
2022-10-06T02:34:56.259Z,0.30
2022-10-06T02:37:57.781Z,0.38
2022-10-06T02:41:01.143Z,0.35
2022-10-06T02:44:04.703Z,0.30
2022-10-06T02:47:11.714Z,0.30
2022-10-06T02:50:13.277Z,0.20
2022-10-06T02:53:14.817Z,0.20
2022-10-06T02:59:20.280Z,0.30
2022-10-06T03:02:22.192Z,0.20
2022-10-06T03:05:23.901Z,0.30
2022-10-06T03:08:25.601Z,0.20
2022-10-06T03:11:30.384Z,0.20
2022-10-06T03:14:32.736Z,0.52
2022-10-06T03:17:34.199Z,0.20
2022-10-06T03:23:38.018Z,0.40
2022-10-06T03:26:42.685Z,0.20
2022-10-06T03:29:45.251Z,0.30
2022-10-06T03:32:47.893Z,0.20
2022-10-06T03:35:58.826Z,0.22
2022-10-06T03:39:03.039Z,0.20
2022-10-06T03:42:06.426Z,0.40
2022-10-06T03:45:09.347Z,0.20
2022-10-06T03:48:10.771Z,0.13
2022-10-06T03:51:14.652Z,0.10
2022-10-06T03:54:16.203Z,0.30
2022-10-06T03:57:20.632Z,0.20
2022-10-06T04:00:22.367Z,0.10
2022-10-06T04:06:29.846Z,0.13
2022-10-06T04:09:31.769Z,0.20
2022-10-06T04:12:35.339Z,0.20
2022-10-06T04:15:40.111Z,0.30
2022-10-06T04:18:43.354Z,0.30
2022-10-06T04:21:46.389Z,0.30
2022-10-06T04:24:50.766Z,0.10
2022-10-06T04:27:53.685Z,0.20
2022-10-06T04:30:56.406Z,0.35
2022-10-06T04:33:59.842Z,0.10
2022-10-06T04:37:03.279Z,0.30
2022-10-06T04:40:06.301Z,0.30
2022-10-06T04:43:08.891Z,0.20
2022-10-06T04:46:37.723Z,0.28
2022-10-06T04:49:32.505Z,0.20
2022-10-06T04:52:34.238Z,0.30
2022-10-06T04:55:35.863Z,0.40
2022-10-06T04:58:40.474Z,0.30
2022-10-06T05:01:42.600Z,0.20
2022-10-06T05:04:46.934Z,0.20
2022-10-06T05:07:50.462Z,0.30
2022-10-06T05:10:59.143Z,0.30
2022-10-06T05:14:01.525Z,0.45
2022-10-06T05:17:04.958Z,0.20
2022-10-06T05:20:10.128Z,0.15
2022-10-06T05:23:11.640Z,0.30
2022-10-06T05:29:22.552Z,0.30
2022-10-06T05:32:24.102Z,0.20
2022-10-06T05:38:31.474Z,0.30
2022-10-06T05:41:33.983Z,0.30
2022-10-06T05:44:39.257Z,0.22
2022-10-06T05:47:47.678Z,0.38
2022-10-06T05:50:58.031Z,0.25
2022-10-06T05:54:00.091Z,0.38
2022-10-06T05:57:02.533Z,0.40
2022-10-06T06:00:08.249Z,0.38
2022-10-06T06:03:14.607Z,0.50
2022-10-06T06:06:18.136Z,0.30
2022-10-06T06:09:21.403Z,0.20
2022-10-06T06:12:25.275Z,0.45
2022-10-06T06:15:57.120Z,0.45
2022-10-06T06:18:59.899Z,0.50
2022-10-06T06:22:01.933Z,0.40
2022-10-06T06:25:06.363Z,0.40
2022-10-06T06:28:08.789Z,0.35
2022-10-06T06:31:19.063Z,0.40
2022-10-06T06:34:22.558Z,0.60
2022-10-06T06:37:24.138Z,0.40
2022-10-06T06:40:26.299Z,0.43
2022-10-06T06:43:28.680Z,0.50
2022-10-06T06:46:49.419Z,0.40
2022-10-06T06:49:53.374Z,0.60
2022-10-06T06:52:56.065Z,0.63
2022-10-06T06:55:58.105Z,0.60
2022-10-06T06:59:00.858Z,0.55
2022-10-06T07:02:03.115Z,0.35
2022-10-06T07:05:07.460Z,0.40
2022-10-06T07:08:09.512Z,0.75
2022-10-06T07:11:15.593Z,0.70
2022-10-06T07:14:17.984Z,0.40
2022-10-06T07:17:37.180Z,0.55
2022-10-06T07:20:53.547Z,0.60
2022-10-06T07:24:07.148Z,0.50
2022-10-06T07:27:12.464Z,0.43
2022-10-06T07:30:18.536Z,0.65
2022-10-06T07:33:22.871Z,0.65
2022-10-06T07:36:26.364Z,0.47
2022-10-06T07:39:28.606Z,0.63
2022-10-06T07:42:30.408Z,0.70
2022-10-06T07:45:40.652Z,0.75
2022-10-06T07:48:48.845Z,0.60
2022-10-06T07:51:52.869Z,1.00
2022-10-06T07:54:55.199Z,0.60
2022-10-06T07:58:10.877Z,0.50
2022-10-06T08:01:14.286Z,0.65
2022-10-06T08:04:16.402Z,0.65
2022-10-06T08:07:21.056Z,0.50
2022-10-06T08:10:22.549Z,0.50
2022-10-06T08:13:26.234Z,0.80
2022-10-06T08:16:29.392Z,0.50
2022-10-06T08:19:32.134Z,0.40
2022-10-06T08:22:35.273Z,0.60
2022-10-06T08:25:41.842Z,0.60
2022-10-06T08:28:44.476Z,0.50
2022-10-06T08:31:46.381Z,0.40
2022-10-06T08:34:49.336Z,0.40
2022-10-06T08:37:52.525Z,0.50
2022-10-06T08:40:54.079Z,0.65
2022-10-06T08:44:01.476Z,0.60
2022-10-06T08:47:10.988Z,0.40
2022-10-06T08:50:13.346Z,0.38
2022-10-06T08:53:25.016Z,0.70
2022-10-06T08:56:33.121Z,0.50
2022-10-06T08:59:35.619Z,0.50
2022-10-06T09:02:41.115Z,0.30
2022-10-06T09:05:43.899Z,0.57
2022-10-06T09:08:52.380Z,0.30
2022-10-06T09:12:02.423Z,0.30
2022-10-06T09:15:23.179Z,0.40
2022-10-06T09:18:49.278Z,0.50
2022-10-06T09:21:53.946Z,0.25
2022-10-06T09:24:58.788Z,0.47
2022-10-06T09:28:02.548Z,0.40
2022-10-06T09:31:18.104Z,0.40
2022-10-06T09:34:27.580Z,0.45
2022-10-06T09:37:53.589Z,0.30
2022-10-06T09:40:55.463Z,0.50
2022-10-06T09:43:59.497Z,0.60
2022-10-06T09:47:01.206Z,0.50
2022-10-06T09:50:15.121Z,0.40
2022-10-06T09:53:17.719Z,0.45
2022-10-06T09:56:19.576Z,0.35
2022-10-06T09:59:26.371Z,0.45
2022-10-06T10:02:35.995Z,0.38
2022-10-06T10:05:45.482Z,0.40
2022-10-06T10:08:47.595Z,0.47
2022-10-06T10:12:15.089Z,0.40
2022-10-06T10:15:26.408Z,0.65
2022-10-06T10:18:31.251Z,0.30
2022-10-06T10:21:34.680Z,0.50
2022-10-06T10:24:50.176Z,0.30
2022-10-06T10:27:58.423Z,0.45
2022-10-06T10:31:05.909Z,0.30
2022-10-06T10:34:23.985Z,0.50
2022-10-06T10:37:35.397Z,0.40
2022-10-06T10:40:43.148Z,0.30
2022-10-06T10:43:49.129Z,0.50
2022-10-06T10:46:55.421Z,0.30
2022-10-06T10:50:04.352Z,0.38
2022-10-06T10:53:10.964Z,0.50
2022-10-06T10:56:15.684Z,0.40
2022-10-06T10:59:22.615Z,0.68
2022-10-06T11:02:24.329Z,0.55
2022-10-06T11:05:39.337Z,0.93
2022-10-06T11:08:49.280Z,0.43
2022-10-06T11:12:02.574Z,0.63
2022-10-06T11:15:11.552Z,0.55
2022-10-06T11:18:27.138Z,0.77
2022-10-06T11:21:36.015Z,0.50
2022-10-06T11:24:44.776Z,0.50
2022-10-06T11:27:58.431Z,0.40
2022-10-06T11:31:09.556Z,0.70
2022-10-06T11:34:11.978Z,0.90
2022-10-06T11:37:24.141Z,0.50
2022-10-06T11:40:36.367Z,0.60
2022-10-06T11:43:46.114Z,0.45
2022-10-06T11:46:53.048Z,0.63
2022-10-06T11:49:55.439Z,0.50
2022-10-06T11:52:57.317Z,0.50
2022-10-06T11:56:28.050Z,0.60
2022-10-06T11:59:30.831Z,0.40
2022-10-06T12:02:37.391Z,0.70
2022-10-06T12:12:37.666Z,1.08
2022-10-06T12:17:08.454Z,0.88
2022-10-06T12:19:26.701Z,0.50
2022-10-06T12:22:31.471Z,1.30
2022-10-06T12:25:39.097Z,1.17
2022-10-06T12:28:48.192Z,1.25
2022-10-06T12:32:00.124Z,0.80
2022-10-06T12:38:05.731Z,1.30
2022-10-06T12:41:10.119Z,1.63
2022-10-06T12:44:25.709Z,1.00
2022-10-06T12:47:33.920Z,1.35
2022-10-06T12:50:36.843Z,1.20
2022-10-06T12:53:49.967Z,0.88
2022-10-06T12:57:00.165Z,0.75
2022-10-06T13:00:01.748Z,0.73
2022-10-06T13:03:08.736Z,0.80
2022-10-06T13:06:11.072Z,0.50
2022-10-06T13:09:14.198Z,0.80
2022-10-06T13:12:23.094Z,0.70
2022-10-06T13:15:29.381Z,0.50
2022-10-06T13:18:32.112Z,0.55
2022-10-06T13:21:34.134Z,0.40
2022-10-06T13:24:35.715Z,0.43
2022-10-06T13:27:37.440Z,0.43
2022-10-06T13:30:39.134Z,0.30
2022-10-06T13:33:43.182Z,0.40
2022-10-06T13:36:48.308Z,0.30
2022-10-06T13:39:49.884Z,0.40
2022-10-06T13:52:34.557Z,0.30
2022-10-06T13:55:36.047Z,0.30
2022-10-06T13:58:37.662Z,0.28
2022-10-06T14:01:39.201Z,0.30
2022-10-06T14:04:40.782Z,0.30
2022-10-06T14:07:43.883Z,0.30
2022-10-06T14:10:48.013Z,0.22
2022-10-06T14:13:54.285Z,0.30
2022-10-06T14:16:56.357Z,0.10
2022-10-06T14:19:58.269Z,0.50
2022-10-06T14:23:03.641Z,0.30
2022-10-06T14:26:06.560Z,0.45
2022-10-06T14:29:08.324Z,0.30
2022-10-06T14:32:13.146Z,0.30
2022-10-06T14:35:14.565Z,0.38
2022-10-06T14:38:17.929Z,0.30
2022-10-06T14:41:24.240Z,0.20
2022-10-06T14:44:26.220Z,0.30
2022-10-06T14:47:29.654Z,0.22
2022-10-06T14:50:31.244Z,0.28
2022-10-06T14:53:33.882Z,0.40
2022-10-06T14:56:37.032Z,0.20
2022-10-06T14:59:38.593Z,0.30
2022-10-06T15:02:41.321Z,0.32
2022-10-06T15:05:57.516Z,0.35
2022-10-06T15:08:59.566Z,0.28
2022-10-06T15:12:01.618Z,0.20
2022-10-06T15:15:06.998Z,0.25
2022-10-06T15:18:08.471Z,0.30
2022-10-06T15:21:12.194Z,0.35
2022-10-06T15:24:16.259Z,0.30
2022-10-06T15:27:32.435Z,0.30
2022-10-06T15:30:38.742Z,0.30
2022-10-06T15:33:40.198Z,0.20
2022-10-06T15:36:43.046Z,0.30
2022-10-06T15:39:48.421Z,0.20
2022-10-06T15:42:50.117Z,0.30
2022-10-06T15:45:54.512Z,0.20
2022-10-06T15:49:00.454Z,0.22
2022-10-06T15:52:03.639Z,0.20
2022-10-06T15:55:06.523Z,0.25
2022-10-06T15:58:07.978Z,0.30
2022-10-06T16:01:39.748Z,0.10
2022-10-06T16:05:14.332Z,0.20
2022-10-06T16:08:15.797Z,0.20
2022-10-06T16:11:18.102Z,0.20
2022-10-06T16:14:20.144Z,0.38
2022-10-06T16:17:21.563Z,0.43
2022-10-06T16:20:22.995Z,0.20
2022-10-06T16:23:24.447Z,0.30
2022-10-06T16:26:27.570Z,0.38
2022-10-06T16:29:29.680Z,0.30
2022-10-06T16:32:31.259Z,0.30
2022-10-06T16:35:32.695Z,0.20
2022-10-06T16:38:34.194Z,0.28
2022-10-06T16:41:36.337Z,0.40
2022-10-06T16:44:37.738Z,0.13
2022-10-06T16:47:39.309Z,0.20
2022-10-06T16:50:40.699Z,0.30
2022-10-06T16:53:44.050Z,0.32
2022-10-06T16:56:51.081Z,0.30
2022-10-06T16:59:52.653Z,0.35
2022-10-06T17:02:54.175Z,0.30
2022-10-06T17:06:00.855Z,0.32
2022-10-06T17:09:02.323Z,0.38
2022-10-06T17:12:04.809Z,0.20
2022-10-06T17:15:06.945Z,0.15
2022-10-06T17:18:08.401Z,0.30
2022-10-06T17:21:32.199Z,0.10
2022-10-06T17:24:32.042Z,0.20
2022-10-06T17:27:37.227Z,0.20
2022-10-06T17:30:51.507Z,0.25
2022-10-06T17:33:53.078Z,0.20
2022-10-06T17:36:54.540Z,0.28
2022-10-06T17:39:55.940Z,0.32
2022-10-06T17:42:58.201Z,0.30
2022-10-06T17:46:03.812Z,0.30
2022-10-06T17:49:07.256Z,0.57
2022-10-06T17:52:09.066Z,0.40
2022-10-06T17:55:10.610Z,0.50
2022-10-06T17:58:16.504Z,0.30
2022-10-06T18:01:21.467Z,0.40
2022-10-06T18:04:23.482Z,0.40
2022-10-06T18:07:24.921Z,0.50
2022-10-06T18:10:37.185Z,0.30
2022-10-06T18:13:39.344Z,0.10
2022-10-06T18:16:42.544Z,0.20
2022-10-06T18:19:44.106Z,0.22
2022-10-06T18:22:45.566Z,0.22
2022-10-06T18:25:46.978Z,0.35
2022-10-06T18:28:52.849Z,0.50
2022-10-06T18:31:55.521Z,0.70
2022-10-06T18:36:12.109Z,0.60
2022-10-06T18:38:21.865Z,0.77
2022-10-06T18:44:40.956Z,0.80
2022-10-06T18:47:57.037Z,0.70
2022-10-06T18:50:59.998Z,0.70
2022-10-06T18:54:04.740Z,0.88
2022-10-06T18:57:06.221Z,0.65
2022-10-06T19:00:10.115Z,0.93
2022-10-06T19:03:11.610Z,0.60
2022-10-06T19:06:13.185Z,0.60
2022-10-06T19:09:16.709Z,0.70
2022-10-06T19:12:18.237Z,0.60
2022-10-06T19:15:21.434Z,0.50
2022-10-06T19:18:23.010Z,0.50
2022-10-06T19:27:32.509Z,0.38
2022-10-06T19:30:34.654Z,0.40
2022-10-06T19:33:37.160Z,0.30
2022-10-06T19:36:40.238Z,0.43
2022-10-06T19:39:43.513Z,0.40
2022-10-06T19:42:47.924Z,0.63
2022-10-06T19:45:56.673Z,0.40
2022-10-06T19:48:58.202Z,0.40
2022-10-06T19:51:59.703Z,0.50
2022-10-06T19:55:02.184Z,0.70
2022-10-06T19:58:03.828Z,0.55
2022-10-06T20:01:06.240Z,0.40
2022-10-06T20:04:08.188Z,0.50
2022-10-06T20:07:09.734Z,0.57
2022-10-06T20:10:12.344Z,0.38
2022-10-06T20:13:14.332Z,0.60
2022-10-06T20:16:18.047Z,0.40
2022-10-06T20:19:19.924Z,0.50
2022-10-06T20:22:21.447Z,0.50
2022-10-06T20:25:23.216Z,0.30
2022-10-06T20:28:24.779Z,0.40
2022-10-06T20:31:29.889Z,0.40
2022-10-06T20:34:32.039Z,0.30
2022-10-06T20:37:33.981Z,0.40
2022-10-06T20:40:42.409Z,0.68
2022-10-06T20:43:44.025Z,0.40
2022-10-06T20:46:46.511Z,0.60
2022-10-06T20:49:53.476Z,0.43
2022-10-06T20:52:56.599Z,0.40
2022-10-06T20:55:59.390Z,0.43
2022-10-06T20:59:00.981Z,0.77
2022-10-06T21:02:03.826Z,0.60
2022-10-06T21:05:06.401Z,0.60
2022-10-06T21:08:07.874Z,0.68
2022-10-06T21:11:10.723Z,0.80
2022-10-06T21:14:12.886Z,0.73
2022-10-06T21:17:14.854Z,0.70
2022-10-06T21:20:16.246Z,0.88
2022-10-06T21:26:20.889Z,0.63
2022-10-06T21:29:22.461Z,0.70
2022-10-06T21:32:25.204Z,0.70
2022-10-06T21:35:26.763Z,0.82
2022-10-06T21:38:29.084Z,0.80
2022-10-06T21:41:36.256Z,0.60
2022-10-06T21:44:37.767Z,0.80
2022-10-06T21:47:39.796Z,0.77
2022-10-06T21:50:41.219Z,0.80
2022-10-06T21:59:46.712Z,0.60
2022-10-06T22:02:48.821Z,0.50
2022-10-06T22:05:50.564Z,0.57
2022-10-06T22:08:52.207Z,0.80
2022-10-06T22:11:53.578Z,0.77
2022-10-06T22:17:59.850Z,0.77
2022-10-06T22:21:09.094Z,0.70
2022-10-06T22:24:12.732Z,0.90
2022-10-06T22:27:14.144Z,0.73
2022-10-06T22:33:20.567Z,0.50
2022-10-06T22:36:22.448Z,0.95
2022-10-06T22:39:26.998Z,0.63
2022-10-06T22:42:28.359Z,0.60
2022-10-06T22:48:31.813Z,0.88
2022-10-06T22:51:33.504Z,0.65
2022-10-06T22:54:35.024Z,0.82
2022-10-06T22:57:36.547Z,0.55
2022-10-06T23:00:38.739Z,0.70
2022-10-06T23:03:41.157Z,0.60
2022-10-06T23:06:42.542Z,0.43
2022-10-06T23:12:46.472Z,0.40
2022-10-06T23:15:47.895Z,0.47
2022-10-06T23:21:51.370Z,0.40
2022-10-06T23:27:54.341Z,0.43
2022-10-06T23:30:55.851Z,0.70
2022-10-06T23:33:58.282Z,0.60
2022-10-06T23:36:59.691Z,0.40
2022-10-06T23:43:02.503Z,0.60
2022-10-06T23:46:04.159Z,0.50
2022-10-06T23:49:06.287Z,0.35
2022-10-06T23:52:07.747Z,0.30
2022-10-06T23:58:10.780Z,0.38
